createdAt,value
2022-07-29T00:00:07.066Z,19.85
2022-07-29T00:02:50.105Z,19.85
2022-07-29T00:05:34.471Z,19.85
2022-07-29T00:08:17.537Z,19.83
2022-07-29T00:11:00.483Z,19.82
2022-07-29T00:13:47.659Z,19.80
2022-07-29T00:16:33.648Z,19.79
2022-07-29T00:19:16.621Z,19.77
2022-07-29T00:22:00.911Z,19.74
2022-07-29T00:24:43.916Z,19.70
2022-07-29T00:27:26.904Z,19.68
2022-07-29T00:30:10.492Z,19.62
2022-07-29T00:32:53.449Z,19.58
2022-07-29T00:35:44.971Z,19.55
2022-07-29T00:38:29.276Z,19.51
2022-07-29T00:41:12.257Z,19.47
2022-07-29T00:43:55.236Z,19.40
2022-07-29T00:46:38.227Z,19.29
2022-07-29T00:49:21.359Z,19.23
2022-07-29T00:52:04.960Z,19.25
2022-07-29T00:54:49.301Z,19.26
2022-07-29T00:57:32.450Z,19.25
2022-07-29T01:00:18.359Z,19.25
2022-07-29T01:03:01.388Z,19.26
2022-07-29T01:05:51.092Z,19.27
2022-07-29T01:08:35.193Z,19.28
2022-07-29T01:11:20.415Z,19.28
2022-07-29T01:14:03.873Z,19.27
2022-07-29T01:16:53.297Z,19.26
2022-07-29T01:19:50.728Z,19.25
2022-07-29T01:22:42.669Z,19.23
2022-07-29T01:25:55.892Z,19.20
2022-07-29T01:28:51.389Z,19.21
2022-07-29T01:31:53.783Z,19.20
2022-07-29T01:34:50.668Z,19.18
2022-07-29T01:37:41.744Z,19.18
2022-07-29T01:40:29.437Z,19.15
2022-07-29T01:43:15.236Z,19.12
2022-07-29T01:46:03.861Z,19.11
2022-07-29T01:48:51.471Z,19.04
2022-07-29T01:51:42.156Z,18.97
2022-07-29T01:54:31.365Z,18.90
2022-07-29T01:57:19.250Z,18.83
2022-07-29T02:00:04.256Z,18.79
2022-07-29T02:02:58.131Z,18.76
2022-07-29T02:05:44.613Z,18.76
2022-07-29T02:08:28.979Z,18.75
2022-07-29T02:11:12.550Z,18.73
2022-07-29T02:13:58.552Z,18.74
2022-07-29T02:16:43.295Z,18.74
2022-07-29T02:19:28.699Z,18.74
2022-07-29T02:22:14.377Z,18.74
2022-07-29T02:24:58.278Z,18.76
2022-07-29T02:27:44.663Z,18.76
2022-07-29T02:30:29.684Z,18.72
2022-07-29T02:33:15.646Z,18.73
2022-07-29T02:36:01.568Z,18.73
2022-07-29T02:38:58.463Z,18.73
2022-07-29T02:41:45.705Z,18.72
2022-07-29T02:44:34.134Z,18.75
2022-07-29T02:47:22.660Z,18.78
2022-07-29T02:50:11.276Z,18.80
2022-07-29T02:53:00.746Z,18.80
2022-07-29T02:55:50.158Z,18.80
2022-07-29T02:58:35.486Z,18.79
2022-07-29T03:01:22.718Z,18.78
2022-07-29T03:04:07.012Z,18.75
2022-07-29T03:06:51.768Z,18.74
2022-07-29T03:09:36.523Z,18.66
2022-07-29T03:12:20.150Z,18.69
2022-07-29T03:15:03.719Z,18.71
2022-07-29T03:17:47.902Z,18.67
2022-07-29T03:20:31.022Z,18.68
2022-07-29T03:23:14.019Z,18.71
2022-07-29T03:25:58.905Z,18.72
2022-07-29T03:28:41.907Z,18.72
2022-07-29T03:31:25.054Z,18.71
2022-07-29T03:34:08.030Z,18.68
2022-07-29T03:36:51.682Z,18.65
2022-07-29T03:39:39.056Z,18.68
2022-07-29T03:42:29.906Z,18.73
2022-07-29T03:45:19.462Z,18.78
2022-07-29T03:48:14.951Z,18.82
2022-07-29T03:50:58.126Z,18.85
2022-07-29T03:53:41.082Z,18.87
2022-07-29T03:56:25.376Z,18.90
2022-07-29T03:59:10.279Z,18.94
2022-07-29T04:01:54.011Z,18.96
2022-07-29T04:04:37.774Z,18.95
2022-07-29T04:07:20.728Z,18.92
2022-07-29T04:10:03.900Z,18.93
2022-07-29T04:12:46.876Z,18.95
2022-07-29T04:15:31.968Z,18.97
2022-07-29T04:18:15.020Z,19.00
2022-07-29T04:21:00.136Z,19.01
2022-07-29T04:23:53.094Z,19.03
2022-07-29T04:26:37.239Z,19.05
2022-07-29T04:29:20.853Z,19.05
2022-07-29T04:32:05.638Z,19.04
2022-07-29T04:34:48.423Z,19.04
2022-07-29T04:37:31.316Z,19.00
2022-07-29T04:40:14.620Z,19.00
2022-07-29T04:42:57.548Z,18.99
2022-07-29T04:45:43.569Z,18.94
2022-07-29T04:48:28.921Z,18.92
2022-07-29T04:51:11.948Z,18.91
2022-07-29T04:53:54.867Z,18.86
2022-07-29T04:56:37.841Z,18.82
2022-07-29T04:59:20.762Z,18.83
2022-07-29T05:02:03.717Z,18.84
2022-07-29T05:04:48.003Z,18.83
2022-07-29T05:07:30.950Z,18.78
2022-07-29T05:10:13.913Z,18.78
2022-07-29T05:12:56.879Z,18.76
2022-07-29T05:15:40.121Z,18.77
2022-07-29T05:18:25.987Z,18.75
2022-07-29T05:21:10.588Z,18.76
2022-07-29T05:23:53.551Z,18.77
2022-07-29T05:26:36.507Z,18.79
2022-07-29T05:29:43.066Z,18.81
2022-07-29T05:32:22.551Z,18.83
2022-07-29T05:35:06.039Z,18.80
2022-07-29T05:37:50.354Z,18.81
2022-07-29T05:40:33.443Z,18.81
2022-07-29T05:43:16.366Z,18.83
2022-07-29T05:45:59.523Z,18.86
2022-07-29T05:48:42.615Z,18.86
2022-07-29T05:51:25.693Z,18.88
2022-07-29T05:54:09.950Z,18.87
2022-07-29T05:56:52.871Z,18.89
2022-07-29T05:59:37.933Z,18.90
2022-07-29T06:02:20.954Z,18.90
2022-07-29T06:05:04.397Z,18.90
2022-07-29T06:07:50.020Z,18.90
2022-07-29T06:10:36.919Z,18.92
2022-07-29T06:13:19.849Z,18.92
2022-07-29T06:16:02.903Z,18.93
2022-07-29T06:18:45.924Z,18.97
2022-07-29T06:21:28.842Z,18.90
2022-07-29T06:24:13.453Z,18.83
2022-07-29T06:26:58.074Z,18.80
2022-07-29T06:29:41.196Z,18.78
2022-07-29T06:32:24.127Z,18.74
2022-07-29T06:35:37.649Z,18.66
2022-07-29T06:38:31.439Z,18.64
2022-07-29T06:41:17.847Z,18.66
2022-07-29T06:44:02.358Z,18.71
2022-07-29T06:46:45.602Z,18.75
2022-07-29T06:49:28.734Z,18.79
2022-07-29T06:52:11.699Z,18.80
2022-07-29T06:54:56.009Z,18.79
2022-07-29T06:57:38.957Z,18.74
2022-07-29T07:00:23.438Z,18.73
2022-07-29T07:03:06.392Z,18.71
2022-07-29T07:05:49.376Z,18.70
2022-07-29T07:08:32.542Z,18.69
2022-07-29T07:11:15.593Z,18.70
2022-07-29T07:14:03.111Z,18.71
2022-07-29T07:16:48.081Z,18.73
2022-07-29T07:19:35.730Z,18.75
2022-07-29T07:22:18.674Z,18.81
2022-07-29T07:25:01.621Z,18.90
2022-07-29T07:27:44.580Z,18.97
2022-07-29T07:30:29.134Z,19.05
2022-07-29T07:33:13.532Z,19.12
2022-07-29T07:35:56.550Z,19.20
2022-07-29T07:38:39.468Z,19.30
2022-07-29T07:41:37.310Z,19.40
2022-07-29T07:44:51.355Z,19.54
2022-07-29T07:47:39.448Z,19.65
2022-07-29T07:50:24.925Z,19.72
2022-07-29T07:53:07.991Z,19.79
2022-07-29T07:56:09.922Z,19.87
2022-07-29T07:58:53.716Z,19.95
2022-07-29T08:01:47.616Z,20.03
2022-07-29T08:04:38.333Z,20.13
2022-07-29T08:07:22.656Z,20.24
2022-07-29T08:10:06.599Z,20.35
2022-07-29T08:12:49.555Z,20.43
2022-07-29T08:15:32.493Z,20.43
2022-07-29T08:18:15.784Z,20.49
2022-07-29T08:20:59.099Z,20.61
2022-07-29T08:23:53.166Z,20.70
2022-07-29T08:26:37.447Z,20.75
2022-07-29T08:29:20.421Z,20.79
2022-07-29T08:32:03.383Z,20.88
2022-07-29T08:34:47.283Z,21.02
2022-07-29T08:37:30.270Z,21.17
2022-07-29T08:40:15.581Z,21.32
2022-07-29T08:42:58.511Z,21.39
2022-07-29T08:45:47.592Z,21.47
2022-07-29T08:48:31.490Z,21.54
2022-07-29T08:51:16.255Z,21.61
2022-07-29T08:53:59.906Z,21.68
2022-07-29T08:56:44.457Z,21.79
2022-07-29T08:59:29.519Z,21.88
2022-07-29T09:02:20.639Z,22.03
2022-07-29T09:05:04.095Z,22.11
2022-07-29T09:07:48.999Z,22.22
2022-07-29T09:10:32.300Z,22.30
2022-07-29T09:13:16.716Z,22.42
2022-07-29T09:15:59.717Z,22.52
2022-07-29T09:18:43.915Z,22.68
2022-07-29T09:21:44.381Z,22.81
2022-07-29T09:24:37.702Z,22.97
2022-07-29T09:27:23.720Z,23.12
2022-07-29T09:30:11.478Z,23.28
2022-07-29T09:32:59.287Z,23.43
2022-07-29T09:35:42.382Z,23.56
2022-07-29T09:38:39.568Z,23.76
2022-07-29T09:41:22.634Z,23.99
2022-07-29T09:44:06.972Z,24.22
2022-07-29T09:47:06.932Z,24.52
2022-07-29T09:49:55.739Z,24.85
2022-07-29T09:52:47.795Z,25.13
2022-07-29T09:55:30.852Z,25.42
2022-07-29T09:58:18.432Z,25.69
2022-07-29T10:01:01.658Z,25.94
2022-07-29T10:03:54.667Z,26.25
2022-07-29T10:06:40.072Z,26.45
2022-07-29T10:09:23.140Z,26.74
2022-07-29T10:12:08.279Z,26.98
2022-07-29T10:14:52.325Z,27.20
2022-07-29T10:17:35.369Z,27.37
2022-07-29T10:20:26.783Z,27.56
2022-07-29T10:23:11.410Z,27.66
2022-07-29T10:25:54.375Z,27.74
2022-07-29T10:28:37.370Z,27.86
2022-07-29T10:31:29.324Z,28.00
2022-07-29T10:34:21.174Z,28.16
2022-07-29T10:37:15.310Z,28.31
2022-07-29T10:40:28.321Z,28.47
2022-07-29T10:43:19.950Z,28.53
2022-07-29T10:46:03.935Z,28.49
2022-07-29T10:49:15.295Z,28.35
2022-07-29T10:52:08.995Z,28.20
2022-07-29T10:54:53.611Z,28.10
2022-07-29T10:57:53.881Z,28.14
2022-07-29T11:00:37.778Z,28.35
2022-07-29T11:03:49.611Z,28.48
2022-07-29T11:07:07.878Z,28.48
2022-07-29T11:10:31.242Z,28.71
2022-07-29T11:13:14.846Z,28.66
2022-07-29T11:16:00.316Z,28.58
2022-07-29T11:19:26.375Z,28.48
2022-07-29T11:22:33.075Z,28.53
2022-07-29T11:25:17.158Z,28.71
2022-07-29T11:28:18.530Z,28.87
2022-07-29T11:31:07.967Z,29.09
2022-07-29T11:33:56.074Z,29.43
2022-07-29T11:37:18.515Z,29.84
2022-07-29T11:40:20.185Z,30.27
2022-07-29T11:46:09.431Z,30.39
2022-07-29T11:48:53.934Z,30.45
2022-07-29T11:51:37.331Z,30.36
2022-07-29T11:54:57.458Z,30.29
2022-07-29T11:57:37.762Z,30.29
2022-07-29T12:00:28.679Z,30.43
2022-07-29T12:03:12.896Z,30.29
2022-07-29T12:05:56.019Z,30.03
2022-07-29T12:07:03.291Z,30.40
2022-07-29T12:08:43.427Z,29.82
2022-07-29T12:11:27.071Z,29.79
2022-07-29T12:14:09.959Z,29.91
2022-07-29T12:16:54.324Z,30.11
2022-07-29T12:19:44.534Z,30.45
2022-07-29T12:22:28.386Z,30.75
2022-07-29T12:25:32.263Z,31.02
2022-07-29T12:28:26.989Z,31.11
2022-07-29T12:31:43.661Z,31.16
2022-07-29T12:34:20.018Z,31.13
2022-07-29T12:37:03.216Z,31.21
2022-07-29T12:39:46.329Z,31.24
2022-07-29T12:42:29.248Z,31.40
2022-07-29T12:45:12.563Z,31.24
2022-07-29T12:47:55.647Z,30.94
2022-07-29T12:50:55.047Z,31.00
2022-07-29T12:53:38.955Z,31.00
2022-07-29T12:56:42.337Z,30.79
2022-07-29T12:59:24.849Z,30.74
2022-07-29T13:02:09.355Z,30.96
2022-07-29T13:04:58.543Z,31.08
2022-07-29T13:07:55.604Z,31.33
2022-07-29T13:10:40.195Z,31.49
2022-07-29T13:13:23.134Z,31.38
2022-07-29T13:16:10.014Z,31.02
2022-07-29T13:19:09.399Z,30.76
2022-07-29T13:21:52.336Z,30.63
2022-07-29T13:24:47.500Z,30.41
2022-07-29T13:27:33.126Z,30.35
2022-07-29T13:30:16.077Z,30.55
2022-07-29T13:32:59.013Z,30.71
2022-07-29T13:35:41.981Z,30.68
2022-07-29T13:38:30.847Z,30.63
2022-07-29T13:41:15.642Z,30.61
2022-07-29T13:44:00.602Z,30.64
2022-07-29T13:46:43.577Z,30.99
2022-07-29T13:49:26.776Z,31.20
2022-07-29T13:52:09.695Z,31.20
2022-07-29T13:54:52.583Z,31.08
2022-07-29T13:57:37.890Z,30.90
2022-07-29T14:00:20.923Z,30.68
2022-07-29T14:03:03.886Z,30.43
2022-07-29T14:05:46.812Z,30.25
2022-07-29T14:08:29.741Z,30.20
2022-07-29T14:11:12.701Z,30.14
2022-07-29T14:13:56.962Z,30.12
2022-07-29T14:16:43.789Z,30.03
2022-07-29T14:19:33.071Z,29.91
2022-07-29T14:22:15.971Z,29.98
2022-07-29T14:24:59.404Z,30.11
2022-07-29T14:27:58.591Z,30.37
2022-07-29T14:30:42.954Z,30.69
2022-07-29T14:33:25.869Z,31.00
2022-07-29T14:36:08.958Z,31.21
2022-07-29T14:38:51.858Z,31.18
2022-07-29T14:41:34.974Z,30.99
2022-07-29T14:44:17.906Z,30.77
2022-07-29T14:47:07.559Z,30.60
2022-07-29T14:49:51.010Z,30.46
2022-07-29T14:52:34.128Z,30.35
2022-07-29T14:55:19.741Z,30.24
2022-07-29T14:58:10.931Z,29.93
2022-07-29T15:00:57.350Z,29.75
2022-07-29T15:03:41.743Z,29.92
2022-07-29T15:06:24.732Z,30.10
2022-07-29T15:09:07.756Z,30.23
2022-07-29T15:11:50.718Z,30.34
2022-07-29T15:14:33.716Z,30.36
2022-07-29T15:17:16.638Z,30.22
2022-07-29T15:20:00.971Z,30.17
2022-07-29T15:22:44.291Z,30.19
2022-07-29T15:25:28.215Z,29.98
2022-07-29T15:28:11.412Z,29.95
2022-07-29T15:30:55.418Z,29.93
2022-07-29T15:33:40.052Z,29.82
2022-07-29T15:36:50.654Z,29.66
2022-07-29T15:39:27.396Z,29.48
2022-07-29T15:42:10.316Z,29.22
2022-07-29T15:44:53.258Z,28.94
2022-07-29T15:47:37.316Z,28.69
2022-07-29T15:50:20.438Z,28.48
2022-07-29T15:53:04.871Z,28.38
2022-07-29T15:55:47.626Z,28.14
2022-07-29T15:58:30.522Z,27.89
2022-07-29T16:01:13.768Z,27.71
2022-07-29T16:03:56.766Z,27.63
2022-07-29T16:06:40.005Z,27.47
2022-07-29T16:09:24.462Z,27.35
2022-07-29T16:12:15.442Z,27.24
2022-07-29T16:14:58.613Z,27.19
2022-07-29T16:17:41.569Z,27.09
2022-07-29T16:20:24.547Z,26.96
2022-07-29T16:23:09.504Z,26.82
2022-07-29T16:26:01.502Z,26.62
2022-07-29T16:28:44.656Z,26.38
2022-07-29T16:31:30.192Z,26.09
2022-07-29T16:34:13.132Z,25.80
2022-07-29T16:36:56.059Z,25.55
2022-07-29T16:39:39.169Z,25.32
2022-07-29T16:42:44.447Z,25.12
2022-07-29T16:45:26.601Z,24.92
2022-07-29T16:48:14.465Z,24.77
2022-07-29T16:50:57.374Z,24.63
2022-07-29T16:53:40.444Z,24.52
2022-07-29T16:56:23.568Z,24.45
2022-07-29T16:59:07.878Z,24.36
2022-07-29T17:01:50.867Z,24.28
2022-07-29T17:04:34.030Z,24.26
2022-07-29T17:07:17.048Z,24.16
2022-07-29T17:10:03.857Z,24.03
2022-07-29T17:12:47.458Z,23.99
2022-07-29T17:15:31.762Z,23.99
2022-07-29T17:18:19.341Z,24.00
2022-07-29T17:21:02.316Z,24.00
2022-07-29T17:23:45.513Z,24.02
2022-07-29T17:26:28.496Z,24.02
2022-07-29T17:29:11.593Z,24.05
2022-07-29T17:31:55.923Z,24.05
2022-07-29T17:34:39.704Z,23.95
2022-07-29T17:50:22.051Z,22.61
2022-07-29T17:53:10.777Z,21.74
2022-07-29T17:55:59.971Z,20.90
2022-07-29T17:58:44.473Z,20.37
2022-07-29T18:01:27.804Z,20.01
2022-07-29T18:04:11.326Z,19.70
2022-07-29T18:06:56.333Z,19.55
2022-07-29T18:09:40.155Z,19.49
2022-07-29T18:12:23.326Z,19.54
2022-07-29T18:15:08.552Z,19.46
2022-07-29T18:17:57.499Z,19.35
2022-07-29T18:20:41.190Z,19.32
2022-07-29T18:23:31.631Z,19.26
2022-07-29T18:26:14.775Z,19.14
2022-07-29T18:28:58.313Z,19.05
2022-07-29T18:31:42.362Z,18.92
2022-07-29T18:34:25.605Z,18.82
2022-07-29T18:37:08.767Z,18.74
2022-07-29T18:39:56.031Z,18.71
2022-07-29T18:42:41.650Z,18.67
2022-07-29T18:45:28.381Z,18.69
2022-07-29T18:48:13.148Z,18.68
2022-07-29T18:50:56.523Z,18.67
2022-07-29T18:53:39.557Z,18.52
2022-07-29T18:56:23.924Z,18.36
2022-07-29T18:59:07.261Z,18.05
2022-07-29T19:01:50.400Z,18.07
2022-07-29T19:04:33.639Z,18.06
2022-07-29T19:07:17.507Z,18.07
2022-07-29T19:10:00.917Z,18.07
2022-07-29T19:12:45.423Z,18.12
2022-07-29T19:15:28.716Z,18.19
2022-07-29T19:18:13.264Z,18.20
2022-07-29T19:20:56.206Z,18.18
2022-07-29T19:24:01.907Z,18.19
2022-07-29T19:26:46.636Z,18.21
2022-07-29T19:29:32.374Z,18.27
2022-07-29T19:32:25.362Z,18.29
2022-07-29T19:35:31.054Z,18.32
2022-07-29T19:38:13.929Z,18.34
2022-07-29T19:40:57.365Z,18.29
2022-07-29T19:43:50.452Z,18.32
2022-07-29T19:46:37.217Z,18.36
2022-07-29T19:49:20.232Z,18.45
2022-07-29T19:52:03.359Z,18.43
2022-07-29T19:54:46.508Z,18.44
2022-07-29T19:57:29.857Z,18.48
2022-07-29T20:00:25.233Z,18.51
2022-07-29T20:03:10.150Z,18.48
2022-07-29T20:05:53.296Z,18.48
2022-07-29T20:08:36.424Z,18.36
2022-07-29T20:11:19.510Z,18.29
2022-07-29T20:14:02.462Z,18.27
2022-07-29T20:16:47.602Z,18.25
2022-07-29T20:19:32.920Z,18.26
2022-07-29T20:22:21.249Z,18.17
2022-07-29T20:25:10.142Z,18.09
2022-07-29T20:27:54.334Z,18.13
2022-07-29T20:30:38.385Z,18.14
2022-07-29T20:33:22.032Z,18.06
2022-07-29T20:36:07.382Z,17.92
2022-07-29T20:38:50.437Z,17.85
2022-07-29T20:41:34.146Z,17.76
2022-07-29T20:44:18.865Z,17.75
2022-07-29T20:47:03.244Z,17.78
2022-07-29T20:49:49.281Z,17.75
2022-07-29T20:52:34.007Z,17.77
2022-07-29T20:55:17.585Z,17.82
2022-07-29T20:58:00.637Z,17.84
2022-07-29T21:00:43.709Z,17.87
2022-07-29T21:03:27.264Z,17.86
2022-07-29T21:06:11.394Z,17.80
2022-07-29T21:08:57.933Z,17.70
2022-07-29T21:11:44.357Z,17.65
2022-07-29T21:14:47.292Z,17.65
2022-07-29T21:17:31.544Z,17.65
2022-07-29T21:20:15.148Z,17.70
2022-07-29T21:22:59.012Z,17.78
2022-07-29T21:25:44.904Z,17.91
2022-07-29T21:28:27.234Z,17.95
2022-07-29T21:31:12.479Z,17.96
2022-07-29T21:33:55.622Z,17.97
2022-07-29T21:36:53.967Z,17.97
2022-07-29T21:39:37.141Z,17.97
2022-07-29T21:42:21.669Z,18.00
2022-07-29T21:45:05.264Z,18.00
2022-07-29T21:47:48.208Z,17.99
2022-07-29T21:50:31.280Z,17.98
2022-07-29T21:53:15.855Z,18.01
2022-07-29T21:55:58.944Z,18.02
2022-07-29T21:58:44.065Z,18.02
2022-07-29T22:01:26.971Z,18.01
2022-07-29T22:04:10.026Z,17.99
2022-07-29T22:06:53.011Z,17.98
2022-07-29T22:09:36.006Z,17.98
2022-07-29T22:12:19.065Z,17.95
2022-07-29T22:15:03.731Z,17.96
2022-07-29T22:17:46.739Z,17.98
2022-07-29T22:20:30.926Z,18.02
2022-07-29T22:23:14.015Z,18.02
2022-07-29T22:25:57.279Z,18.00
2022-07-29T22:28:40.583Z,18.00
2022-07-29T22:31:25.055Z,18.01
2022-07-29T22:34:12.840Z,18.01
2022-07-29T22:36:55.878Z,18.03
2022-07-29T22:39:39.105Z,18.06
2022-07-29T22:42:22.171Z,18.09
2022-07-29T22:45:05.824Z,18.10
2022-07-29T22:47:52.438Z,18.06
2022-07-29T22:50:42.315Z,18.03
2022-07-29T22:53:25.439Z,18.04
2022-07-29T22:56:09.789Z,18.06
2022-07-29T22:58:55.460Z,18.06
2022-07-29T23:01:38.745Z,18.07
2022-07-29T23:04:23.893Z,18.09
2022-07-29T23:07:07.019Z,18.09
2022-07-29T23:09:50.076Z,18.10
2022-07-29T23:12:33.119Z,18.10
2022-07-29T23:15:16.156Z,18.05
2022-07-29T23:18:01.297Z,18.02
2022-07-29T23:20:46.021Z,18.01
2022-07-29T23:23:32.321Z,17.99
2022-07-29T23:26:17.027Z,17.90
2022-07-29T23:29:00.167Z,17.84
2022-07-29T23:31:44.278Z,17.83
2022-07-29T23:34:31.497Z,17.84
2022-07-29T23:37:15.958Z,17.83
2022-07-29T23:39:59.069Z,17.82
2022-07-29T23:42:42.940Z,17.83
2022-07-29T23:45:40.020Z,17.84
2022-07-29T23:48:28.168Z,17.83
2022-07-29T23:51:11.144Z,17.82
2022-07-29T23:53:55.584Z,17.82
2022-07-29T23:56:38.678Z,17.82
2022-07-29T23:59:21.727Z,17.82
